sensor_id;sensor_type;location;lat;lon;timestamp;temperature;humidity
76269;DHT22;65088;52.352;4.846;2022-11-21T00:01:47;5.80;73.90
76269;DHT22;65088;52.352;4.846;2022-11-21T00:04:16;5.80;73.80
76269;DHT22;65088;52.352;4.846;2022-11-21T00:06:46;5.70;73.70
76269;DHT22;65088;52.352;4.846;2022-11-21T00:09:20;5.70;73.80
76269;DHT22;65088;52.352;4.846;2022-11-21T00:11:55;5.70;73.90
76269;DHT22;65088;52.352;4.846;2022-11-21T00:14:25;5.60;73.90
76269;DHT22;65088;52.352;4.846;2022-11-21T00:16:54;5.60;74.00
76269;DHT22;65088;52.352;4.846;2022-11-21T00:19:23;5.70;74.00
76269;DHT22;65088;52.352;4.846;2022-11-21T00:21:52;5.60;73.80
76269;DHT22;65088;52.352;4.846;2022-11-21T00:24:24;5.60;73.80
76269;DHT22;65088;52.352;4.846;2022-11-21T00:26:54;5.60;73.80
76269;DHT22;65088;52.352;4.846;2022-11-21T00:29:23;5.60;73.80
76269;DHT22;65088;52.352;4.846;2022-11-21T00:31:52;5.60;73.80
76269;DHT22;65088;52.352;4.846;2022-11-21T00:34:22;5.60;73.80
76269;DHT22;65088;52.352;4.846;2022-11-21T00:36:51;5.60;73.80
76269;DHT22;65088;52.352;4.846;2022-11-21T00:39:20;5.60;73.90
76269;DHT22;65088;52.352;4.846;2022-11-21T00:41:52;5.60;73.90
76269;DHT22;65088;52.352;4.846;2022-11-21T00:44:21;5.60;73.80
76269;DHT22;65088;52.352;4.846;2022-11-21T00:46:51;5.60;73.80
76269;DHT22;65088;52.352;4.846;2022-11-21T00:49:20;5.60;73.90
76269;DHT22;65088;52.352;4.846;2022-11-21T00:51:49;5.50;73.90
76269;DHT22;65088;52.352;4.846;2022-11-21T00:54:19;5.60;73.90
76269;DHT22;65088;52.352;4.846;2022-11-21T00:56:48;5.50;73.70
76269;DHT22;65088;52.352;4.846;2022-11-21T00:59:20;5.40;73.70
76269;DHT22;65088;52.352;4.846;2022-11-21T01:01:49;5.30;73.90
76269;DHT22;65088;52.352;4.846;2022-11-21T01:04:18;5.20;74.20
76269;DHT22;65088;52.352;4.846;2022-11-21T01:06:47;5.20;74.30
76269;DHT22;65088;52.352;4.846;2022-11-21T01:09:17;5.10;74.50
76269;DHT22;65088;52.352;4.846;2022-11-21T01:11:46;5.10;74.40
76269;DHT22;65088;52.352;4.846;2022-11-21T01:14:15;5.10;74.50
76269;DHT22;65088;52.352;4.846;2022-11-21T01:16:47;5.20;74.60
76269;DHT22;65088;52.352;4.846;2022-11-21T01:19:16;5.20;74.60
76269;DHT22;65088;52.352;4.846;2022-11-21T01:21:46;5.30;74.60
76269;DHT22;65088;52.352;4.846;2022-11-21T01:24:15;5.30;74.50
76269;DHT22;65088;52.352;4.846;2022-11-21T01:26:44;5.40;74.40
76269;DHT22;65088;52.352;4.846;2022-11-21T01:29:16;5.40;74.30
76269;DHT22;65088;52.352;4.846;2022-11-21T01:31:47;5.40;74.30
76269;DHT22;65088;52.352;4.846;2022-11-21T01:34:17;5.40;74.30
76269;DHT22;65088;52.352;4.846;2022-11-21T01:36:47;5.40;74.30
76269;DHT22;65088;52.352;4.846;2022-11-21T01:39:16;5.40;74.30
76269;DHT22;65088;52.352;4.846;2022-11-21T01:41:45;5.40;74.20
76269;DHT22;65088;52.352;4.846;2022-11-21T01:44:18;5.40;74.20
76269;DHT22;65088;52.352;4.846;2022-11-21T01:46:51;5.40;74.20
76269;DHT22;65088;52.352;4.846;2022-11-21T01:49:23;5.40;74.30
76269;DHT22;65088;52.352;4.846;2022-11-21T01:51:57;5.40;74.40
76269;DHT22;65088;52.352;4.846;2022-11-21T01:54:30;5.40;74.30
76269;DHT22;65088;52.352;4.846;2022-11-21T01:57:05;5.50;74.30
76269;DHT22;65088;52.352;4.846;2022-11-21T01:59:39;5.40;74.30
76269;DHT22;65088;52.352;4.846;2022-11-21T02:02:15;5.50;74.30
76269;DHT22;65088;52.352;4.846;2022-11-21T02:04:46;5.50;74.20
76269;DHT22;65088;52.352;4.846;2022-11-21T02:07:18;5.50;74.10
76269;DHT22;65088;52.352;4.846;2022-11-21T02:09:51;5.60;74.10
76269;DHT22;65088;52.352;4.846;2022-11-21T02:12:25;5.60;74.00
76269;DHT22;65088;52.352;4.846;2022-11-21T02:14:57;5.50;74.00
76269;DHT22;65088;52.352;4.846;2022-11-21T02:17:31;5.50;74.00
76269;DHT22;65088;52.352;4.846;2022-11-21T02:20:02;5.50;74.00
76269;DHT22;65088;52.352;4.846;2022-11-21T02:22:37;5.60;73.90
76269;DHT22;65088;52.352;4.846;2022-11-21T02:25:13;5.50;73.90
76269;DHT22;65088;52.352;4.846;2022-11-21T02:27:42;5.50;74.00
76269;DHT22;65088;52.352;4.846;2022-11-21T02:30:12;5.50;74.00
76269;DHT22;65088;52.352;4.846;2022-11-21T02:32:42;5.50;74.00
76269;DHT22;65088;52.352;4.846;2022-11-21T02:35:14;5.50;74.00
76269;DHT22;65088;52.352;4.846;2022-11-21T02:37:45;5.50;74.00
76269;DHT22;65088;52.352;4.846;2022-11-21T02:40:21;5.50;74.10
76269;DHT22;65088;52.352;4.846;2022-11-21T02:42:58;5.50;74.20
76269;DHT22;65088;52.352;4.846;2022-11-21T02:45:30;5.50;74.10
76269;DHT22;65088;52.352;4.846;2022-11-21T02:48:01;5.60;74.00
76269;DHT22;65088;52.352;4.846;2022-11-21T02:50:31;5.50;74.00
76269;DHT22;65088;52.352;4.846;2022-11-21T02:53:02;5.50;74.10
76269;DHT22;65088;52.352;4.846;2022-11-21T02:55:34;5.50;74.20
76269;DHT22;65088;52.352;4.846;2022-11-21T02:58:03;5.50;74.10
76269;DHT22;65088;52.352;4.846;2022-11-21T03:00:34;5.40;74.10
76269;DHT22;65088;52.352;4.846;2022-11-21T03:03:04;5.40;74.20
76269;DHT22;65088;52.352;4.846;2022-11-21T03:05:33;5.40;74.20
76269;DHT22;65088;52.352;4.846;2022-11-21T03:08:03;5.40;74.20
76269;DHT22;65088;52.352;4.846;2022-11-21T03:10:35;5.50;74.30
76269;DHT22;65088;52.352;4.846;2022-11-21T03:13:05;5.40;74.10
76269;DHT22;65088;52.352;4.846;2022-11-21T03:15:34;5.40;74.30
76269;DHT22;65088;52.352;4.846;2022-11-21T03:18:04;5.40;74.30
76269;DHT22;65088;52.352;4.846;2022-11-21T03:20:33;5.40;74.20
76269;DHT22;65088;52.352;4.846;2022-11-21T03:23:03;5.40;74.20
76269;DHT22;65088;52.352;4.846;2022-11-21T03:25:35;5.30;74.20
76269;DHT22;65088;52.352;4.846;2022-11-21T03:28:04;5.30;74.30
76269;DHT22;65088;52.352;4.846;2022-11-21T03:30:33;5.40;74.30
76269;DHT22;65088;52.352;4.846;2022-11-21T03:33:02;5.40;74.20
76269;DHT22;65088;52.352;4.846;2022-11-21T03:35:32;5.40;74.20
76269;DHT22;65088;52.352;4.846;2022-11-21T03:38:01;5.40;74.30
76269;DHT22;65088;52.352;4.846;2022-11-21T03:40:30;5.40;74.30
76269;DHT22;65088;52.352;4.846;2022-11-21T03:43:05;5.40;74.20
76269;DHT22;65088;52.352;4.846;2022-11-21T03:45:34;5.40;74.20
76269;DHT22;65088;52.352;4.846;2022-11-21T03:48:04;5.40;74.20
76269;DHT22;65088;52.352;4.846;2022-11-21T03:50:33;5.30;74.20
76269;DHT22;65088;52.352;4.846;2022-11-21T03:53:03;5.30;74.30
76269;DHT22;65088;52.352;4.846;2022-11-21T03:55:32;5.30;74.30
76269;DHT22;65088;52.352;4.846;2022-11-21T03:58:01;5.30;74.20
76269;DHT22;65088;52.352;4.846;2022-11-21T04:00:33;5.20;74.00
76269;DHT22;65088;52.352;4.846;2022-11-21T04:03:02;5.20;74.00
76269;DHT22;65088;52.352;4.846;2022-11-21T04:05:32;5.10;74.10
76269;DHT22;65088;52.352;4.846;2022-11-21T04:08:01;5.00;74.20
76269;DHT22;65088;52.352;4.846;2022-11-21T04:10:30;5.00;74.20
76269;DHT22;65088;52.352;4.846;2022-11-21T04:12:59;5.00;74.30
76269;DHT22;65088;52.352;4.846;2022-11-21T04:15:29;5.00;74.30
76269;DHT22;65088;52.352;4.846;2022-11-21T04:18:01;5.00;74.30
76269;DHT22;65088;52.352;4.846;2022-11-21T04:20:30;4.90;74.40
76269;DHT22;65088;52.352;4.846;2022-11-21T04:22:59;4.90;74.40
76269;DHT22;65088;52.352;4.846;2022-11-21T04:25:29;4.90;74.40
76269;DHT22;65088;52.352;4.846;2022-11-21T04:27:59;4.80;74.40
76269;DHT22;65088;52.352;4.846;2022-11-21T04:30:30;4.80;74.60
76269;DHT22;65088;52.352;4.846;2022-11-21T04:33:02;4.80;74.70
76269;DHT22;65088;52.352;4.846;2022-11-21T04:35:32;4.80;74.70
76269;DHT22;65088;52.352;4.846;2022-11-21T04:38:01;4.80;74.70
76269;DHT22;65088;52.352;4.846;2022-11-21T04:40:30;4.80;74.60
76269;DHT22;65088;52.352;4.846;2022-11-21T04:42:59;4.70;74.60
76269;DHT22;65088;52.352;4.846;2022-11-21T04:45:29;4.70;74.70
76269;DHT22;65088;52.352;4.846;2022-11-21T04:47:58;4.60;74.80
76269;DHT22;65088;52.352;4.846;2022-11-21T04:50:30;4.60;75.00
76269;DHT22;65088;52.352;4.846;2022-11-21T04:52:59;4.60;75.10
76269;DHT22;65088;52.352;4.846;2022-11-21T04:55:30;4.60;75.10
76269;DHT22;65088;52.352;4.846;2022-11-21T04:58:00;4.60;75.20
76269;DHT22;65088;52.352;4.846;2022-11-21T05:00:29;4.70;75.10
76269;DHT22;65088;52.352;4.846;2022-11-21T05:03:02;4.70;75.20
76269;DHT22;65088;52.352;4.846;2022-11-21T05:05:35;4.70;75.20
76269;DHT22;65088;52.352;4.846;2022-11-21T05:08:04;4.60;75.20
76269;DHT22;65088;52.352;4.846;2022-11-21T05:10:33;4.60;75.30
76269;DHT22;65088;52.352;4.846;2022-11-21T05:13:23;4.60;75.20
76269;DHT22;65088;52.352;4.846;2022-11-21T05:15:56;4.60;75.30
76269;DHT22;65088;52.352;4.846;2022-11-21T05:18:25;4.60;75.40
76269;DHT22;65088;52.352;4.846;2022-11-21T05:20:57;4.60;75.40
76269;DHT22;65088;52.352;4.846;2022-11-21T05:23:27;4.50;75.40
76269;DHT22;65088;52.352;4.846;2022-11-21T05:25:56;4.60;75.40
76269;DHT22;65088;52.352;4.846;2022-11-21T05:28:25;4.50;75.40
76269;DHT22;65088;52.352;4.846;2022-11-21T05:30:55;4.60;75.50
76269;DHT22;65088;52.352;4.846;2022-11-21T05:33:24;4.60;75.40
76269;DHT22;65088;52.352;4.846;2022-11-21T05:35:53;4.60;75.40
76269;DHT22;65088;52.352;4.846;2022-11-21T05:38:25;4.60;75.40
76269;DHT22;65088;52.352;4.846;2022-11-21T05:40:54;4.60;75.40
76269;DHT22;65088;52.352;4.846;2022-11-21T05:43:24;4.60;75.50
76269;DHT22;65088;52.352;4.846;2022-11-21T05:46:05;4.60;75.50
76269;DHT22;65088;52.352;4.846;2022-11-21T05:48:35;4.60;75.40
76269;DHT22;65088;52.352;4.846;2022-11-21T05:51:04;4.70;75.40
76269;DHT22;65088;52.352;4.846;2022-11-21T05:53:36;4.70;75.40
76269;DHT22;65088;52.352;4.846;2022-11-21T05:56:07;4.70;75.40
76269;DHT22;65088;52.352;4.846;2022-11-21T05:58:37;4.70;75.30
76269;DHT22;65088;52.352;4.846;2022-11-21T06:01:09;4.70;75.30
76269;DHT22;65088;52.352;4.846;2022-11-21T06:03:41;4.70;75.30
76269;DHT22;65088;52.352;4.846;2022-11-21T06:06:09;4.60;75.40
76269;DHT22;65088;52.352;4.846;2022-11-21T06:08:42;4.70;75.50
76269;DHT22;65088;52.352;4.846;2022-11-21T06:11:13;4.70;75.50
76269;DHT22;65088;52.352;4.846;2022-11-21T06:13:43;4.70;75.60
76269;DHT22;65088;52.352;4.846;2022-11-21T06:16:14;4.70;75.60
76269;DHT22;65088;52.352;4.846;2022-11-21T06:18:46;4.70;75.60
76269;DHT22;65088;52.352;4.846;2022-11-21T06:21:18;4.70;75.70
76269;DHT22;65088;52.352;4.846;2022-11-21T06:23:53;4.70;75.60
76269;DHT22;65088;52.352;4.846;2022-11-21T06:26:23;4.70;75.70
76269;DHT22;65088;52.352;4.846;2022-11-21T06:28:53;4.80;75.70
76269;DHT22;65088;52.352;4.846;2022-11-21T06:31:24;4.80;75.70
76269;DHT22;65088;52.352;4.846;2022-11-21T06:33:55;4.80;75.70
76269;DHT22;65088;52.352;4.846;2022-11-21T06:36:25;4.80;75.70
76269;DHT22;65088;52.352;4.846;2022-11-21T06:38:57;4.80;75.80
76269;DHT22;65088;52.352;4.846;2022-11-21T06:41:26;4.90;75.80
76269;DHT22;65088;52.352;4.846;2022-11-21T06:43:58;4.90;75.80
76269;DHT22;65088;52.352;4.846;2022-11-21T06:46:28;5.00;75.80
76269;DHT22;65088;52.352;4.846;2022-11-21T06:48:57;5.00;75.80
76269;DHT22;65088;52.352;4.846;2022-11-21T06:51:27;5.00;75.80
76269;DHT22;65088;52.352;4.846;2022-11-21T06:53:59;5.00;75.80
76269;DHT22;65088;52.352;4.846;2022-11-21T06:56:29;5.00;76.00
76269;DHT22;65088;52.352;4.846;2022-11-21T06:58:59;5.00;76.00
76269;DHT22;65088;52.352;4.846;2022-11-21T07:01:28;5.10;76.00
76269;DHT22;65088;52.352;4.846;2022-11-21T07:03:58;5.10;76.00
76269;DHT22;65088;52.352;4.846;2022-11-21T07:06:27;5.10;75.90
76269;DHT22;65088;52.352;4.846;2022-11-21T07:08:59;5.10;76.00
76269;DHT22;65088;52.352;4.846;2022-11-21T07:11:28;5.10;75.90
76269;DHT22;65088;52.352;4.846;2022-11-21T07:13:57;5.10;75.90
76269;DHT22;65088;52.352;4.846;2022-11-21T07:16:24;5.20;76.00
76269;DHT22;65088;52.352;4.846;2022-11-21T07:18:57;5.20;75.90
76269;DHT22;65088;52.352;4.846;2022-11-21T07:21:26;5.20;76.00
76269;DHT22;65088;52.352;4.846;2022-11-21T07:23:55;5.20;75.90
76269;DHT22;65088;52.352;4.846;2022-11-21T07:26:27;5.20;76.00
76269;DHT22;65088;52.352;4.846;2022-11-21T07:28:57;5.20;76.10
76269;DHT22;65088;52.352;4.846;2022-11-21T07:31:27;5.20;76.20
76269;DHT22;65088;52.352;4.846;2022-11-21T07:33:56;5.20;76.00
76269;DHT22;65088;52.352;4.846;2022-11-21T07:36:25;5.20;76.20
76269;DHT22;65088;52.352;4.846;2022-11-21T07:38:54;5.30;76.10
76269;DHT22;65088;52.352;4.846;2022-11-21T07:41:24;5.30;76.00
76269;DHT22;65088;52.352;4.846;2022-11-21T07:43:55;5.20;76.00
76269;DHT22;65088;52.352;4.846;2022-11-21T07:46:25;5.20;76.10
76269;DHT22;65088;52.352;4.846;2022-11-21T07:48:54;5.10;76.40
76269;DHT22;65088;52.352;4.846;2022-11-21T07:51:23;5.20;76.50
76269;DHT22;65088;52.352;4.846;2022-11-21T07:53:52;5.20;76.40
76269;DHT22;65088;52.352;4.846;2022-11-21T07:56:22;5.30;76.30
76269;DHT22;65088;52.352;4.846;2022-11-21T07:58:51;5.40;76.20
76269;DHT22;65088;52.352;4.846;2022-11-21T08:01:23;5.40;76.10
76269;DHT22;65088;52.352;4.846;2022-11-21T08:03:52;5.40;76.20
76269;DHT22;65088;52.352;4.846;2022-11-21T08:06:22;5.50;76.10
76269;DHT22;65088;52.352;4.846;2022-11-21T08:08:52;5.50;76.10
76269;DHT22;65088;52.352;4.846;2022-11-21T08:11:21;5.50;76.10
76269;DHT22;65088;52.352;4.846;2022-11-21T08:13:51;5.60;76.00
76269;DHT22;65088;52.352;4.846;2022-11-21T08:16:23;5.60;75.90
76269;DHT22;65088;52.352;4.846;2022-11-21T08:18:53;5.60;76.00
76269;DHT22;65088;52.352;4.846;2022-11-21T08:21:22;5.60;76.10
76269;DHT22;65088;52.352;4.846;2022-11-21T08:23:51;5.70;76.20
76269;DHT22;65088;52.352;4.846;2022-11-21T08:26:21;5.80;76.10
76269;DHT22;65088;52.352;4.846;2022-11-21T08:28:50;5.80;76.10
76269;DHT22;65088;52.352;4.846;2022-11-21T08:31:19;5.90;76.00
76269;DHT22;65088;52.352;4.846;2022-11-21T08:33:54;5.90;75.90
76269;DHT22;65088;52.352;4.846;2022-11-21T08:36:24;5.90;75.90
76269;DHT22;65088;52.352;4.846;2022-11-21T08:38:53;6.00;76.10
76269;DHT22;65088;52.352;4.846;2022-11-21T08:41:22;6.10;76.10
76269;DHT22;65088;52.352;4.846;2022-11-21T08:44:04;6.20;75.90
76269;DHT22;65088;52.352;4.846;2022-11-21T08:46:34;6.20;76.00
76269;DHT22;65088;52.352;4.846;2022-11-21T08:49:07;6.30;75.90
76269;DHT22;65088;52.352;4.846;2022-11-21T08:51:36;6.40;75.80
76269;DHT22;65088;52.352;4.846;2022-11-21T08:54:05;6.40;75.80
76269;DHT22;65088;52.352;4.846;2022-11-21T08:56:35;6.50;75.70
76269;DHT22;65088;52.352;4.846;2022-11-21T08:59:04;6.50;75.60
76269;DHT22;65088;52.352;4.846;2022-11-21T09:01:33;6.50;75.60
76269;DHT22;65088;52.352;4.846;2022-11-21T09:04:02;6.60;75.50
76269;DHT22;65088;52.352;4.846;2022-11-21T09:06:35;6.60;75.30
76269;DHT22;65088;52.352;4.846;2022-11-21T09:09:05;6.60;75.30
76269;DHT22;65088;52.352;4.846;2022-11-21T09:11:35;6.60;75.50
76269;DHT22;65088;52.352;4.846;2022-11-21T09:14:05;6.60;75.50
76269;DHT22;65088;52.352;4.846;2022-11-21T09:16:46;6.70;75.60
76269;DHT22;65088;52.352;4.846;2022-11-21T09:19:28;6.70;75.50
76269;DHT22;65088;52.352;4.846;2022-11-21T09:22:00;6.80;75.50
76269;DHT22;65088;52.352;4.846;2022-11-21T09:24:29;6.90;75.40
76269;DHT22;65088;52.352;4.846;2022-11-21T09:26:58;7.00;75.20
76269;DHT22;65088;52.352;4.846;2022-11-21T09:29:28;7.00;75.20
76269;DHT22;65088;52.352;4.846;2022-11-21T09:31:57;7.10;75.20
76269;DHT22;65088;52.352;4.846;2022-11-21T09:34:26;7.10;75.20
76269;DHT22;65088;52.352;4.846;2022-11-21T09:36:56;7.20;75.10
76269;DHT22;65088;52.352;4.846;2022-11-21T09:39:28;7.30;75.10
76269;DHT22;65088;52.352;4.846;2022-11-21T09:42:06;7.30;75.00
76269;DHT22;65088;52.352;4.846;2022-11-21T09:44:59;7.40;75.00
76269;DHT22;65088;52.352;4.846;2022-11-21T09:47:30;7.40;74.90
76269;DHT22;65088;52.352;4.846;2022-11-21T09:50:02;7.40;75.00
76269;DHT22;65088;52.352;4.846;2022-11-21T09:52:37;7.50;74.90
76269;DHT22;65088;52.352;4.846;2022-11-21T09:55:17;7.50;74.80
76269;DHT22;65088;52.352;4.846;2022-11-21T09:57:49;7.50;74.90
76269;DHT22;65088;52.352;4.846;2022-11-21T10:00:21;7.60;74.70
76269;DHT22;65088;52.352;4.846;2022-11-21T10:02:51;7.60;74.60
76269;DHT22;65088;52.352;4.846;2022-11-21T10:05:29;7.50;74.70
76269;DHT22;65088;52.352;4.846;2022-11-21T10:08:06;7.40;74.70
76269;DHT22;65088;52.352;4.846;2022-11-21T10:10:52;7.40;74.90
76269;DHT22;65088;52.352;4.846;2022-11-21T10:13:36;7.50;75.00
76269;DHT22;65088;52.352;4.846;2022-11-21T10:16:11;7.50;75.10
76269;DHT22;65088;52.352;4.846;2022-11-21T10:19:19;7.60;75.00
76269;DHT22;65088;52.352;4.846;2022-11-21T10:22:16;7.60;75.10
76269;DHT22;65088;52.352;4.846;2022-11-21T10:24:54;7.70;75.00
76269;DHT22;65088;52.352;4.846;2022-11-21T10:27:31;7.70;75.00
76269;DHT22;65088;52.352;4.846;2022-11-21T10:30:05;7.80;75.00
76269;DHT22;65088;52.352;4.846;2022-11-21T10:32:38;7.80;74.90
76269;DHT22;65088;52.352;4.846;2022-11-21T10:35:14;7.90;75.00
76269;DHT22;65088;52.352;4.846;2022-11-21T10:37:47;8.00;74.80
76269;DHT22;65088;52.352;4.846;2022-11-21T10:40:31;8.00;74.80
76269;DHT22;65088;52.352;4.846;2022-11-21T10:43:13;8.00;74.70
76269;DHT22;65088;52.352;4.846;2022-11-21T10:45:58;8.10;74.60
76269;DHT22;65088;52.352;4.846;2022-11-21T10:48:27;8.20;74.60
76269;DHT22;65088;52.352;4.846;2022-11-21T10:51:13;8.20;74.70
76269;DHT22;65088;52.352;4.846;2022-11-21T10:53:45;8.40;74.70
76269;DHT22;65088;52.352;4.846;2022-11-21T10:56:39;8.40;74.40
76269;DHT22;65088;52.352;4.846;2022-11-21T10:59:22;8.50;74.50
76269;DHT22;65088;52.352;4.846;2022-11-21T11:01:57;8.60;74.30
76269;DHT22;65088;52.352;4.846;2022-11-21T11:04:28;8.70;74.10
76269;DHT22;65088;52.352;4.846;2022-11-21T11:07:19;8.80;74.10
76269;DHT22;65088;52.352;4.846;2022-11-21T11:09:49;8.80;74.00
76269;DHT22;65088;52.352;4.846;2022-11-21T11:12:27;8.80;73.90
76269;DHT22;65088;52.352;4.846;2022-11-21T11:15:23;8.80;73.90
76269;DHT22;65088;52.352;4.846;2022-11-21T11:17:55;8.80;73.80
76269;DHT22;65088;52.352;4.846;2022-11-21T11:20:34;8.90;73.80
76269;DHT22;65088;52.352;4.846;2022-11-21T11:23:25;8.90;73.80
76269;DHT22;65088;52.352;4.846;2022-11-21T11:25:56;8.90;74.00
76269;DHT22;65088;52.352;4.846;2022-11-21T11:28:34;9.00;73.70
76269;DHT22;65088;52.352;4.846;2022-11-21T11:31:07;9.00;73.60
76269;DHT22;65088;52.352;4.846;2022-11-21T11:33:38;9.00;73.60
76269;DHT22;65088;52.352;4.846;2022-11-21T11:36:15;9.20;73.70
76269;DHT22;65088;52.352;4.846;2022-11-21T11:38:52;9.30;73.50
76269;DHT22;65088;52.352;4.846;2022-11-21T11:41:43;9.40;73.60
76269;DHT22;65088;52.352;4.846;2022-11-21T11:44:33;9.50;73.10
76269;DHT22;65088;52.352;4.846;2022-11-21T11:47:23;9.50;73.10
76269;DHT22;65088;52.352;4.846;2022-11-21T11:50:02;9.50;73.30
76269;DHT22;65088;52.352;4.846;2022-11-21T11:52:50;9.50;73.40
76269;DHT22;65088;52.352;4.846;2022-11-21T11:55:25;9.60;73.80
76269;DHT22;65088;52.352;4.846;2022-11-21T11:58:00;9.80;73.80
76269;DHT22;65088;52.352;4.846;2022-11-21T12:00:37;9.90;73.50
76269;DHT22;65088;52.352;4.846;2022-11-21T12:03:14;10.00;73.80
76269;DHT22;65088;52.352;4.846;2022-11-21T12:05:57;10.40;73.70
76269;DHT22;65088;52.352;4.846;2022-11-21T12:08:33;10.70;73.20
76269;DHT22;65088;52.352;4.846;2022-11-21T12:11:28;10.90;73.00
76269;DHT22;65088;52.352;4.846;2022-11-21T12:14:17;11.10;72.80
76269;DHT22;65088;52.352;4.846;2022-11-21T12:17:04;11.50;72.70
76269;DHT22;65088;52.352;4.846;2022-11-21T12:19:37;12.10;71.40
76269;DHT22;65088;52.352;4.846;2022-11-21T12:22:08;12.40;70.70
76269;DHT22;65088;52.352;4.846;2022-11-21T12:24:39;12.70;70.60
76269;DHT22;65088;52.352;4.846;2022-11-21T12:27:26;13.00;69.60
76269;DHT22;65088;52.352;4.846;2022-11-21T12:30:13;13.00;68.70
76269;DHT22;65088;52.352;4.846;2022-11-21T12:32:54;12.70;68.20
76269;DHT22;65088;52.352;4.846;2022-11-21T12:35:46;12.30;68.30
76269;DHT22;65088;52.352;4.846;2022-11-21T12:38:27;12.20;68.60
76269;DHT22;65088;52.352;4.846;2022-11-21T12:41:08;12.00;68.80
76269;DHT22;65088;52.352;4.846;2022-11-21T12:44:12;11.80;68.30
76269;DHT22;65088;52.352;4.846;2022-11-21T12:46:48;11.60;68.00
76269;DHT22;65088;52.352;4.846;2022-11-21T12:49:25;11.50;68.10
76269;DHT22;65088;52.352;4.846;2022-11-21T12:52:15;11.20;67.90
76269;DHT22;65088;52.352;4.846;2022-11-21T12:58:09;10.80;68.50
76269;DHT22;65088;52.352;4.846;2022-11-21T13:00:58;10.70;68.90
76269;DHT22;65088;52.352;4.846;2022-11-21T13:03:48;10.60;69.10
76269;DHT22;65088;52.352;4.846;2022-11-21T13:06:21;10.50;69.30
76269;DHT22;65088;52.352;4.846;2022-11-21T13:08:55;10.50;69.50
76269;DHT22;65088;52.352;4.846;2022-11-21T13:11:30;10.40;69.50
76269;DHT22;65088;52.352;4.846;2022-11-21T13:14:20;10.50;69.40
76269;DHT22;65088;52.352;4.846;2022-11-21T13:17:01;10.50;69.40
76269;DHT22;65088;52.352;4.846;2022-11-21T13:19:36;10.50;69.30
76269;DHT22;65088;52.352;4.846;2022-11-21T13:25:12;10.70;69.20
76269;DHT22;65088;52.352;4.846;2022-11-21T13:31:30;10.80;69.20
76269;DHT22;65088;52.352;4.846;2022-11-21T13:34:00;10.90;69.10
76269;DHT22;65088;52.352;4.846;2022-11-21T13:36:38;10.90;68.90
76269;DHT22;65088;52.352;4.846;2022-11-21T13:39:24;10.90;68.60
76269;DHT22;65088;52.352;4.846;2022-11-21T13:42:10;10.90;68.70
76269;DHT22;65088;52.352;4.846;2022-11-21T13:44:52;10.70;68.60
76269;DHT22;65088;52.352;4.846;2022-11-21T13:51:02;10.60;69.30
76269;DHT22;65088;52.352;4.846;2022-11-21T13:53:46;10.50;68.90
76269;DHT22;65088;52.352;4.846;2022-11-21T13:56:27;10.50;68.90
76269;DHT22;65088;52.352;4.846;2022-11-21T13:59:05;10.50;68.80
76269;DHT22;65088;52.352;4.846;2022-11-21T14:01:56;10.40;68.80
76269;DHT22;65088;52.352;4.846;2022-11-21T14:04:49;10.30;69.00
76269;DHT22;65088;52.352;4.846;2022-11-21T14:07:22;10.20;69.30
76269;DHT22;65088;52.352;4.846;2022-11-21T14:09:53;10.20;69.40
76269;DHT22;65088;52.352;4.846;2022-11-21T14:12:27;10.10;69.50
76269;DHT22;65088;52.352;4.846;2022-11-21T14:15:17;10.10;69.70
76269;DHT22;65088;52.352;4.846;2022-11-21T14:17:50;10.00;69.10
76269;DHT22;65088;52.352;4.846;2022-11-21T14:20:23;9.90;69.10
76269;DHT22;65088;52.352;4.846;2022-11-21T14:22:57;9.90;69.30
76269;DHT22;65088;52.352;4.846;2022-11-21T14:25:34;9.80;69.40
76269;DHT22;65088;52.352;4.846;2022-11-21T14:28:07;9.80;69.50
76269;DHT22;65088;52.352;4.846;2022-11-21T14:30:41;9.70;69.50
76269;DHT22;65088;52.352;4.846;2022-11-21T14:33:25;9.70;69.90
76269;DHT22;65088;52.352;4.846;2022-11-21T14:36:00;9.70;69.80
76269;DHT22;65088;52.352;4.846;2022-11-21T14:38:33;9.70;70.00
76269;DHT22;65088;52.352;4.846;2022-11-21T14:41:23;9.70;70.00
76269;DHT22;65088;52.352;4.846;2022-11-21T14:44:14;9.70;69.90
76269;DHT22;65088;52.352;4.846;2022-11-21T14:46:46;9.70;70.00
76269;DHT22;65088;52.352;4.846;2022-11-21T14:49:23;9.70;70.00
76269;DHT22;65088;52.352;4.846;2022-11-21T14:52:01;9.70;70.00
76269;DHT22;65088;52.352;4.846;2022-11-21T14:54:33;9.70;70.10
76269;DHT22;65088;52.352;4.846;2022-11-21T14:57:07;9.70;70.20
76269;DHT22;65088;52.352;4.846;2022-11-21T14:59:38;9.70;70.30
76269;DHT22;65088;52.352;4.846;2022-11-21T15:02:15;9.60;70.30
76269;DHT22;65088;52.352;4.846;2022-11-21T15:04:47;9.60;70.50
76269;DHT22;65088;52.352;4.846;2022-11-21T15:07:19;9.60;70.60
76269;DHT22;65088;52.352;4.846;2022-11-21T15:09:49;9.60;70.80
76269;DHT22;65088;52.352;4.846;2022-11-21T15:12:24;9.50;70.90
76269;DHT22;65088;52.352;4.846;2022-11-21T15:14:57;9.40;71.00
76269;DHT22;65088;52.352;4.846;2022-11-21T15:17:30;9.40;71.30
76269;DHT22;65088;52.352;4.846;2022-11-21T15:20:17;9.40;71.40
76269;DHT22;65088;52.352;4.846;2022-11-21T15:22:47;9.40;71.40
76269;DHT22;65088;52.352;4.846;2022-11-21T15:25:20;9.40;71.50
76269;DHT22;65088;52.352;4.846;2022-11-21T15:27:50;9.40;71.60
76269;DHT22;65088;52.352;4.846;2022-11-21T15:30:27;9.40;71.70
76269;DHT22;65088;52.352;4.846;2022-11-21T15:33:04;9.30;71.70
76269;DHT22;65088;52.352;4.846;2022-11-21T15:35:43;9.20;72.00
76269;DHT22;65088;52.352;4.846;2022-11-21T15:38:29;9.10;72.30
76269;DHT22;65088;52.352;4.846;2022-11-21T15:41:23;9.10;72.60
76269;DHT22;65088;52.352;4.846;2022-11-21T15:43:54;9.10;72.80
76269;DHT22;65088;52.352;4.846;2022-11-21T15:46:26;9.00;72.80
76269;DHT22;65088;52.352;4.846;2022-11-21T15:48:59;9.00;73.00
76269;DHT22;65088;52.352;4.846;2022-11-21T15:51:32;9.00;73.00
76269;DHT22;65088;52.352;4.846;2022-11-21T15:54:03;9.00;73.10
76269;DHT22;65088;52.352;4.846;2022-11-21T15:56:32;9.00;73.10
76269;DHT22;65088;52.352;4.846;2022-11-21T15:59:02;9.00;72.90
76269;DHT22;65088;52.352;4.846;2022-11-21T16:01:31;9.00;73.00
76269;DHT22;65088;52.352;4.846;2022-11-21T16:04:05;9.00;73.00
76269;DHT22;65088;52.352;4.846;2022-11-21T16:06:34;9.00;73.00
76269;DHT22;65088;52.352;4.846;2022-11-21T16:09:04;9.00;73.00
76269;DHT22;65088;52.352;4.846;2022-11-21T16:11:34;9.00;72.90
76269;DHT22;65088;52.352;4.846;2022-11-21T16:14:06;9.00;72.80
76269;DHT22;65088;52.352;4.846;2022-11-21T16:16:37;9.00;72.80
76269;DHT22;65088;52.352;4.846;2022-11-21T16:19:10;9.00;72.70
76269;DHT22;65088;52.352;4.846;2022-11-21T16:21:40;9.00;72.60
76269;DHT22;65088;52.352;4.846;2022-11-21T16:24:11;9.00;72.60
76269;DHT22;65088;52.352;4.846;2022-11-21T16:26:41;9.00;72.60
76269;DHT22;65088;52.352;4.846;2022-11-21T16:29:10;9.00;72.50
76269;DHT22;65088;52.352;4.846;2022-11-21T16:31:40;9.00;72.40
76269;DHT22;65088;52.352;4.846;2022-11-21T16:34:11;9.00;72.40
76269;DHT22;65088;52.352;4.846;2022-11-21T16:36:41;9.00;72.40
76269;DHT22;65088;52.352;4.846;2022-11-21T16:39:10;9.10;72.40